createdAt,value
2022-07-29T00:01:41.429Z,44.70
2022-07-29T00:04:09.703Z,46.30
2022-07-29T00:06:38.252Z,45.70
2022-07-29T00:09:06.430Z,45.60
2022-07-29T00:11:34.941Z,46.00
2022-07-29T00:14:03.278Z,45.30
2022-07-29T00:16:31.523Z,45.10
2022-07-29T00:19:02.398Z,44.90
2022-07-29T00:21:31.289Z,45.30
2022-07-29T00:23:59.571Z,45.50
2022-07-29T00:26:32.512Z,45.50
2022-07-29T00:29:31.978Z,46.30
2022-07-29T00:31:49.536Z,46.40
2022-07-29T00:34:36.935Z,46.40
2022-07-29T00:37:05.330Z,46.60
2022-07-29T00:39:36.207Z,46.80
2022-07-29T00:42:05.072Z,47.20
2022-07-29T00:44:37.869Z,47.20
2022-07-29T00:47:06.523Z,47.60
2022-07-29T00:49:36.788Z,47.60
2022-07-29T00:52:05.465Z,47.60
2022-07-29T00:54:34.825Z,47.60
2022-07-29T00:57:03.829Z,47.60
2022-07-29T00:59:35.581Z,47.50
2022-07-29T01:02:04.547Z,47.30
2022-07-29T01:04:34.385Z,47.30
2022-07-29T01:07:04.782Z,47.30
2022-07-29T01:09:37.273Z,47.10
2022-07-29T01:12:18.898Z,46.90
2022-07-29T01:14:48.735Z,46.90
2022-07-29T01:17:26.287Z,46.60
2022-07-29T01:20:03.930Z,46.30
2022-07-29T01:22:49.092Z,46.40
2022-07-29T01:25:42.712Z,46.60
2022-07-29T01:28:40.037Z,46.00
2022-07-29T01:31:22.813Z,45.80
2022-07-29T01:34:00.381Z,45.70
2022-07-29T01:36:34.594Z,45.60
2022-07-29T01:39:09.644Z,46.20
2022-07-29T01:41:41.160Z,46.30
2022-07-29T01:44:17.349Z,46.70
2022-07-29T01:46:54.731Z,47.10
2022-07-29T01:49:26.781Z,47.40
2022-07-29T01:52:00.340Z,47.60
2022-07-29T01:54:34.383Z,48.20
2022-07-29T01:57:04.050Z,48.20
2022-07-29T01:59:33.578Z,48.60
2022-07-29T02:02:06.939Z,48.50
2022-07-29T02:04:37.851Z,48.50
2022-07-29T02:07:09.056Z,48.80
2022-07-29T02:09:39.997Z,48.10
2022-07-29T02:12:11.960Z,48.90
2022-07-29T02:14:44.739Z,49.40
2022-07-29T02:17:16.337Z,49.10
2022-07-29T02:19:45.393Z,48.70
2022-07-29T02:22:14.757Z,48.40
2022-07-29T02:24:44.124Z,49.20
2022-07-29T02:27:14.265Z,49.10
2022-07-29T02:29:42.721Z,48.90
2022-07-29T02:32:13.456Z,49.00
2022-07-29T02:34:43.756Z,49.10
2022-07-29T02:37:13.535Z,50.90
2022-07-29T02:39:44.053Z,50.80
2022-07-29T02:42:15.495Z,51.30
2022-07-29T02:44:44.707Z,51.70
2022-07-29T02:47:20.074Z,50.90
2022-07-29T02:49:56.026Z,50.30
2022-07-29T02:52:28.725Z,50.80
2022-07-29T02:55:00.445Z,50.80
2022-07-29T02:57:35.937Z,50.70
2022-07-29T03:00:25.774Z,50.50
2022-07-29T03:02:58.138Z,50.30
2022-07-29T03:05:27.747Z,50.50
2022-07-29T03:08:02.390Z,50.40
2022-07-29T03:10:31.604Z,50.60
2022-07-29T03:13:00.773Z,50.50
2022-07-29T03:15:29.882Z,50.60
2022-07-29T03:18:00.544Z,50.60
2022-07-29T03:20:29.124Z,50.60
2022-07-29T03:22:57.531Z,50.00
2022-07-29T03:25:25.949Z,51.60
2022-07-29T03:27:54.564Z,54.90
2022-07-29T03:30:22.967Z,54.00
2022-07-29T03:32:52.707Z,53.40
2022-07-29T03:35:23.802Z,53.50
2022-07-29T03:37:51.970Z,52.50
2022-07-29T03:40:24.730Z,51.80
2022-07-29T03:42:56.254Z,51.70
2022-07-29T03:45:25.925Z,51.20
2022-07-29T03:48:01.485Z,51.00
2022-07-29T03:50:32.179Z,50.80
2022-07-29T03:53:01.816Z,50.90
2022-07-29T03:55:34.434Z,50.60
2022-07-29T03:58:04.155Z,51.70
2022-07-29T04:00:34.432Z,52.40
2022-07-29T04:03:03.276Z,51.70
2022-07-29T04:05:33.037Z,50.90
2022-07-29T04:08:01.321Z,51.70
2022-07-29T04:10:32.016Z,51.70
2022-07-29T04:13:02.684Z,51.40
2022-07-29T04:15:31.893Z,52.00
2022-07-29T04:18:00.743Z,52.00
2022-07-29T04:20:29.342Z,51.50
2022-07-29T04:22:59.024Z,52.70
2022-07-29T04:25:27.639Z,55.70
2022-07-29T04:28:04.837Z,53.80
2022-07-29T04:30:34.400Z,53.50
2022-07-29T04:33:04.568Z,53.10
2022-07-29T04:35:36.704Z,52.70
2022-07-29T04:38:15.558Z,52.70
2022-07-29T04:40:45.447Z,52.80
2022-07-29T04:43:15.958Z,53.20
2022-07-29T04:45:44.293Z,53.60
2022-07-29T04:48:12.603Z,54.20
2022-07-29T04:50:41.540Z,53.40
2022-07-29T04:53:11.376Z,53.80
2022-07-29T04:55:39.998Z,54.00
2022-07-29T04:58:10.000Z,54.10
2022-07-29T05:00:39.054Z,53.80
2022-07-29T05:03:07.442Z,54.60
2022-07-29T05:05:35.863Z,54.30
2022-07-29T05:08:04.603Z,54.60
2022-07-29T05:10:36.706Z,55.10
2022-07-29T05:13:05.008Z,55.10
2022-07-29T05:15:33.580Z,55.30
2022-07-29T05:18:02.661Z,58.10
2022-07-29T05:20:31.711Z,57.60
2022-07-29T05:23:01.227Z,58.00
2022-07-29T05:25:43.454Z,59.60
2022-07-29T05:28:48.590Z,57.70
2022-07-29T05:31:17.184Z,57.80
2022-07-29T05:33:45.395Z,57.70
2022-07-29T05:36:13.663Z,57.20
2022-07-29T05:38:41.964Z,56.70
2022-07-29T05:41:10.481Z,59.40
2022-07-29T05:43:38.905Z,64.50
2022-07-29T05:46:08.500Z,68.40
2022-07-29T05:48:37.229Z,71.30
2022-07-29T05:51:05.962Z,73.20
2022-07-29T05:53:34.534Z,73.50
2022-07-29T05:56:06.587Z,71.30
2022-07-29T05:58:41.785Z,72.80
2022-07-29T06:01:11.453Z,73.30
2022-07-29T06:03:40.171Z,71.40
2022-07-29T06:06:08.732Z,70.70
2022-07-29T06:08:37.529Z,68.10
2022-07-29T06:11:06.937Z,67.10
2022-07-29T06:13:35.171Z,66.30
2022-07-29T06:16:03.454Z,67.80
2022-07-29T06:18:33.481Z,68.20
2022-07-29T06:21:02.342Z,68.90
2022-07-29T06:23:30.643Z,69.10
2022-07-29T06:25:58.936Z,68.30
2022-07-29T06:28:27.257Z,66.20
2022-07-29T06:30:55.589Z,65.00
2022-07-29T06:33:23.847Z,64.50
2022-07-29T06:35:55.194Z,64.70
2022-07-29T06:38:30.747Z,65.80
2022-07-29T06:41:04.157Z,66.00
2022-07-29T06:43:50.349Z,65.40
2022-07-29T06:46:20.620Z,65.60
2022-07-29T06:48:49.724Z,66.30
2022-07-29T06:51:22.713Z,68.30
2022-07-29T06:53:58.271Z,67.90
2022-07-29T06:56:31.095Z,66.40
2022-07-29T06:58:59.307Z,65.00
2022-07-29T07:01:29.856Z,64.20
2022-07-29T07:03:58.814Z,63.70
2022-07-29T07:06:28.728Z,63.50
2022-07-29T07:08:57.084Z,63.10
2022-07-29T07:11:25.560Z,63.60
2022-07-29T07:13:53.857Z,61.60
2022-07-29T07:16:22.154Z,61.10
2022-07-29T07:18:50.368Z,61.10
2022-07-29T07:21:18.858Z,61.30
2022-07-29T07:23:49.599Z,60.70
2022-07-29T07:26:17.851Z,60.50
2022-07-29T07:28:46.099Z,61.10
2022-07-29T07:31:15.387Z,58.90
2022-07-29T07:33:44.062Z,55.10
2022-07-29T07:36:12.388Z,52.20
2022-07-29T07:38:40.980Z,53.70
2022-07-29T07:41:10.616Z,53.00
2022-07-29T07:43:39.074Z,52.60
2022-07-29T07:46:07.718Z,51.40
2022-07-29T07:48:37.042Z,51.60
2022-07-29T07:51:05.424Z,50.30
2022-07-29T07:53:33.877Z,51.10
2022-07-29T07:56:12.163Z,52.50
2022-07-29T07:58:42.021Z,51.90
2022-07-29T08:01:11.131Z,52.50
2022-07-29T08:03:40.208Z,54.00
2022-07-29T08:06:08.597Z,53.20
2022-07-29T08:08:37.379Z,53.00
2022-07-29T08:11:09.433Z,53.00
2022-07-29T08:13:39.749Z,51.90
2022-07-29T08:16:16.687Z,51.70
2022-07-29T08:18:46.486Z,52.50
2022-07-29T08:21:15.919Z,51.10
2022-07-29T08:23:59.605Z,50.60
2022-07-29T08:26:30.126Z,52.00
2022-07-29T08:28:58.364Z,51.50
2022-07-29T08:31:28.155Z,50.10
2022-07-29T08:33:57.258Z,50.50
2022-07-29T08:36:25.864Z,46.70
2022-07-29T08:38:54.323Z,46.60
2022-07-29T08:41:23.157Z,45.60
2022-07-29T08:43:52.002Z,43.90
2022-07-29T08:46:21.204Z,43.80
2022-07-29T08:48:51.373Z,44.20
2022-07-29T08:51:21.762Z,44.30
2022-07-29T08:53:51.543Z,42.80
2022-07-29T08:56:21.361Z,41.90
2022-07-29T08:58:51.748Z,40.70
2022-07-29T09:01:35.233Z,42.80
2022-07-29T09:04:12.053Z,43.60
2022-07-29T09:06:44.960Z,42.80
2022-07-29T09:09:14.618Z,41.80
2022-07-29T09:11:43.753Z,42.60
2022-07-29T09:14:14.352Z,42.20
2022-07-29T09:16:53.537Z,42.30
2022-07-29T09:20:13.036Z,40.80
2022-07-29T09:22:43.000Z,42.00
2022-07-29T09:25:13.724Z,43.00
2022-07-29T09:27:42.468Z,42.10
2022-07-29T09:31:05.138Z,42.70
2022-07-29T09:33:35.490Z,41.00
2022-07-29T09:36:07.151Z,40.30
2022-07-29T09:38:37.703Z,35.90
2022-07-29T09:41:08.948Z,37.00
2022-07-29T09:43:37.710Z,37.20
2022-07-29T09:46:13.615Z,38.10
2022-07-29T09:48:42.429Z,40.70
2022-07-29T09:51:22.144Z,37.30
2022-07-29T09:53:54.035Z,37.20
2022-07-29T09:56:22.249Z,39.90
2022-07-29T10:01:53.715Z,37.00
2022-07-29T10:04:22.345Z,35.30
2022-07-29T10:07:04.763Z,36.60
2022-07-29T10:09:35.799Z,37.40
2022-07-29T10:12:11.922Z,35.50
2022-07-29T10:14:40.544Z,36.30
2022-07-29T10:17:10.769Z,35.80
2022-07-29T10:19:40.084Z,36.40
2022-07-29T10:22:10.107Z,35.70
2022-07-29T10:24:40.684Z,36.60
2022-07-29T10:27:10.750Z,38.10
2022-07-29T10:29:39.230Z,38.40
2022-07-29T10:32:34.231Z,35.80
2022-07-29T10:35:22.074Z,35.60
2022-07-29T10:38:25.180Z,34.00
2022-07-29T10:41:23.935Z,34.40
2022-07-29T10:43:54.531Z,34.30
2022-07-29T10:46:23.273Z,34.40
2022-07-29T10:49:15.699Z,34.50
2022-07-29T10:51:56.021Z,34.60
2022-07-29T10:54:42.420Z,34.10
2022-07-29T10:57:18.625Z,34.10
2022-07-29T10:59:52.989Z,33.60
2022-07-29T11:02:45.242Z,33.70
2022-07-29T11:05:15.951Z,32.60
2022-07-29T11:08:27.847Z,32.20
2022-07-29T11:11:37.907Z,31.20
2022-07-29T11:14:10.514Z,30.60
2022-07-29T11:17:03.064Z,31.30
2022-07-29T11:19:34.650Z,32.30
2022-07-29T11:22:05.388Z,29.90
2022-07-29T11:24:35.694Z,31.40
2022-07-29T11:27:18.074Z,30.90
2022-07-29T11:29:58.712Z,30.80
2022-07-29T11:32:39.919Z,32.10
2022-07-29T11:35:19.070Z,30.90
2022-07-29T11:37:52.652Z,29.20
2022-07-29T11:40:24.291Z,28.40
2022-07-29T11:42:53.030Z,26.90
2022-07-29T11:45:43.524Z,28.60
2022-07-29T11:48:31.410Z,27.60
2022-07-29T11:51:02.995Z,29.20
2022-07-29T11:53:32.808Z,29.00
2022-07-29T11:56:02.518Z,29.10
2022-07-29T11:58:32.718Z,30.10
2022-07-29T12:01:04.201Z,28.50
2022-07-29T12:03:36.121Z,29.00
2022-07-29T12:06:14.146Z,28.60
2022-07-29T12:08:45.080Z,29.90
2022-07-29T12:11:22.879Z,30.30
2022-07-29T12:13:52.760Z,30.40
2022-07-29T12:16:28.022Z,29.80
2022-07-29T12:19:02.596Z,30.00
2022-07-29T12:21:45.743Z,30.00
2022-07-29T12:24:22.716Z,30.30
2022-07-29T12:26:57.941Z,29.10
2022-07-29T12:29:33.982Z,29.70
2022-07-29T12:32:14.737Z,30.70
2022-07-29T12:34:47.697Z,29.70
2022-07-29T12:37:16.061Z,29.60
2022-07-29T12:39:44.856Z,29.20
2022-07-29T12:42:15.073Z,29.70
2022-07-29T12:44:48.760Z,29.10
2022-07-29T12:47:20.463Z,29.50
2022-07-29T12:49:50.157Z,30.30
2022-07-29T12:52:29.979Z,30.50
2022-07-29T12:54:58.238Z,30.50
2022-07-29T12:57:27.049Z,29.00
2022-07-29T13:00:10.972Z,30.10
2022-07-29T13:02:42.502Z,30.60
2022-07-29T13:05:13.519Z,30.50
2022-07-29T13:07:54.634Z,29.80
2022-07-29T13:10:25.896Z,30.20
2022-07-29T13:13:05.637Z,30.40
2022-07-29T13:15:34.478Z,30.20
2022-07-29T13:18:04.963Z,29.70
2022-07-29T13:20:33.906Z,29.00
2022-07-29T13:23:03.130Z,29.60
2022-07-29T13:25:34.275Z,28.60
2022-07-29T13:28:03.062Z,27.90
2022-07-29T13:30:31.254Z,27.80
2022-07-29T13:32:59.555Z,28.10
2022-07-29T13:35:30.687Z,29.40
2022-07-29T13:37:59.044Z,27.80
2022-07-29T13:40:27.948Z,29.00
2022-07-29T13:42:56.176Z,27.30
2022-07-29T13:45:24.759Z,28.60
2022-07-29T13:47:57.611Z,27.40
2022-07-29T13:50:25.884Z,28.30
2022-07-29T13:52:55.548Z,29.30
2022-07-29T13:55:23.844Z,30.70
2022-07-29T13:57:52.460Z,27.80
2022-07-29T14:00:20.978Z,28.00
2022-07-29T14:02:49.142Z,27.40
2022-07-29T14:05:17.643Z,28.10
2022-07-29T14:07:45.928Z,28.20
2022-07-29T14:10:19.805Z,26.50
2022-07-29T14:12:48.415Z,28.60
2022-07-29T14:15:16.876Z,28.00
2022-07-29T14:17:45.298Z,28.60
2022-07-29T14:20:13.543Z,28.60
2022-07-29T14:22:42.679Z,28.10
2022-07-29T14:25:15.089Z,26.80
2022-07-29T14:27:45.687Z,27.50
2022-07-29T14:30:14.819Z,28.10
2022-07-29T14:32:43.572Z,27.90
2022-07-29T14:35:11.759Z,29.00
2022-07-29T14:37:41.258Z,27.40
2022-07-29T14:40:10.671Z,25.90
2022-07-29T14:42:39.164Z,27.40
2022-07-29T14:45:11.073Z,26.40
2022-07-29T14:47:40.400Z,23.70
2022-07-29T14:50:09.923Z,25.10
2022-07-29T14:52:38.302Z,23.60
2022-07-29T14:55:16.707Z,22.30
2022-07-29T14:57:48.750Z,21.50
2022-07-29T15:00:20.030Z,20.40
2022-07-29T15:03:03.533Z,22.60
2022-07-29T15:05:32.187Z,23.90
2022-07-29T15:08:01.180Z,23.40
2022-07-29T15:10:29.926Z,24.40
2022-07-29T15:12:58.747Z,23.90
2022-07-29T15:15:28.789Z,23.20
2022-07-29T15:17:57.148Z,22.30
2022-07-29T15:20:28.116Z,22.80
2022-07-29T15:22:57.211Z,25.30
2022-07-29T15:25:26.331Z,24.70
2022-07-29T15:28:00.929Z,23.60
2022-07-29T15:30:33.270Z,24.30
2022-07-29T15:33:03.918Z,24.30
2022-07-29T15:35:32.263Z,24.60
2022-07-29T15:38:00.633Z,23.60
2022-07-29T15:40:29.281Z,23.70
2022-07-29T15:43:01.667Z,23.10
2022-07-29T15:45:32.053Z,24.20
2022-07-29T15:48:01.140Z,23.50
2022-07-29T15:50:29.359Z,24.60
2022-07-29T15:52:57.769Z,25.00
2022-07-29T15:55:26.194Z,25.40
2022-07-29T15:57:58.482Z,26.00
2022-07-29T16:00:30.099Z,26.50
2022-07-29T16:02:58.656Z,25.60
2022-07-29T16:05:29.793Z,26.20
2022-07-29T16:08:00.591Z,25.10
2022-07-29T16:10:28.909Z,26.30
2022-07-29T16:12:57.182Z,27.10
2022-07-29T16:15:25.612Z,27.80
2022-07-29T16:17:55.419Z,27.00
2022-07-29T16:20:24.043Z,26.80
2022-07-29T16:22:52.248Z,26.50
2022-07-29T16:25:20.959Z,27.30
2022-07-29T16:27:49.219Z,27.90
2022-07-29T16:30:17.855Z,28.70
2022-07-29T16:32:46.074Z,28.80
2022-07-29T16:35:15.841Z,27.40
2022-07-29T16:37:44.061Z,26.50
2022-07-29T16:40:12.580Z,26.70
2022-07-29T16:42:46.964Z,28.00
2022-07-29T16:45:16.094Z,23.90
2022-07-29T16:47:44.386Z,25.50
2022-07-29T16:50:12.759Z,25.80
2022-07-29T16:52:42.607Z,25.70
2022-07-29T16:55:11.152Z,26.70
2022-07-29T16:57:39.352Z,26.60
2022-07-29T17:00:09.186Z,26.00
2022-07-29T17:02:38.690Z,23.90
2022-07-29T17:05:08.127Z,22.60
2022-07-29T17:07:36.865Z,22.50
2022-07-29T17:10:08.776Z,22.00
2022-07-29T17:12:37.713Z,21.70
2022-07-29T17:15:07.293Z,22.50
2022-07-29T17:17:38.991Z,22.90
2022-07-29T17:20:09.152Z,24.20
2022-07-29T17:22:37.594Z,24.90
2022-07-29T17:25:08.655Z,24.70
2022-07-29T17:27:37.458Z,25.30
2022-07-29T17:30:07.002Z,25.50
2022-07-29T17:32:38.527Z,25.80
2022-07-29T17:35:28.668Z,26.00
2022-07-29T17:37:57.217Z,25.60
2022-07-29T17:40:26.992Z,26.30
2022-07-29T17:42:55.219Z,27.00
2022-07-29T17:45:23.430Z,26.90
2022-07-29T17:47:51.805Z,27.00
2022-07-29T17:50:20.060Z,27.30
2022-07-29T17:52:48.583Z,27.30
2022-07-29T17:55:16.912Z,27.10
2022-07-29T17:57:46.755Z,26.80
2022-07-29T18:00:17.605Z,27.00
2022-07-29T18:02:46.150Z,26.80
2022-07-29T18:05:14.416Z,27.10
2022-07-29T18:07:42.828Z,26.70
2022-07-29T18:10:11.296Z,26.20
2022-07-29T18:12:39.523Z,26.00
2022-07-29T18:15:10.880Z,25.30
2022-07-29T18:17:56.645Z,25.90
2022-07-29T18:20:26.464Z,25.80
2022-07-29T18:22:54.846Z,26.00
2022-07-29T18:25:23.672Z,26.10
2022-07-29T18:27:51.810Z,26.50
2022-07-29T18:30:21.848Z,26.30
2022-07-29T18:33:18.132Z,26.30
2022-07-29T18:35:38.545Z,26.60
2022-07-29T18:38:07.136Z,26.10
2022-07-29T18:40:35.635Z,26.00
2022-07-29T18:43:03.803Z,25.50
2022-07-29T18:45:33.478Z,25.90
2022-07-29T18:48:01.831Z,25.80
2022-07-29T18:50:31.117Z,25.80
2022-07-29T18:53:02.071Z,25.70
2022-07-29T18:55:30.443Z,25.90
2022-07-29T18:57:58.624Z,26.10
2022-07-29T19:00:27.969Z,26.40
2022-07-29T19:02:57.946Z,25.90
2022-07-29T19:05:26.522Z,25.70
2022-07-29T19:07:56.199Z,25.50
2022-07-29T19:10:24.496Z,25.70
2022-07-29T19:12:52.835Z,25.60
2022-07-29T19:15:21.080Z,24.80
2022-07-29T19:17:49.388Z,25.00
2022-07-29T19:20:19.163Z,25.00
2022-07-29T19:22:47.355Z,25.00
2022-07-29T19:25:15.876Z,25.00
2022-07-29T19:27:44.172Z,24.90
2022-07-29T19:30:12.890Z,24.80
2022-07-29T19:32:41.259Z,24.70
2022-07-29T19:35:27.184Z,24.30
2022-07-29T19:37:58.887Z,24.10
2022-07-29T19:40:27.928Z,24.60
2022-07-29T19:42:56.799Z,24.10
2022-07-29T19:45:26.252Z,24.30
2022-07-29T19:48:00.723Z,24.00
2022-07-29T19:50:29.417Z,23.90
2022-07-29T19:52:59.190Z,23.90
2022-07-29T19:55:27.876Z,23.90
2022-07-29T19:57:56.342Z,24.80
2022-07-29T20:00:25.989Z,25.10
2022-07-29T20:02:54.359Z,24.80
2022-07-29T20:05:28.045Z,24.60
2022-07-29T20:07:58.583Z,24.50
2022-07-29T20:10:27.016Z,24.50
2022-07-29T20:12:55.490Z,24.50
2022-07-29T20:15:24.129Z,24.60
2022-07-29T20:17:56.741Z,24.60
2022-07-29T20:20:26.765Z,24.80
2022-07-29T20:22:55.081Z,24.70
2022-07-29T20:25:25.487Z,24.60
2022-07-29T20:27:54.344Z,24.50
2022-07-29T20:30:23.898Z,24.60
2022-07-29T20:32:52.104Z,24.60
2022-07-29T20:35:22.353Z,24.70
2022-07-29T20:37:55.599Z,24.70
2022-07-29T20:40:26.947Z,24.80
2022-07-29T20:42:55.335Z,25.00
2022-07-29T20:45:24.712Z,24.90
2022-07-29T20:47:53.425Z,24.60
2022-07-29T20:50:24.086Z,25.00
2022-07-29T20:52:53.273Z,25.20
2022-07-29T20:55:22.087Z,25.10
2022-07-29T20:57:52.288Z,25.30
2022-07-29T21:00:20.488Z,25.30
2022-07-29T21:02:48.799Z,25.40
2022-07-29T21:05:17.250Z,25.30
2022-07-29T21:07:45.580Z,25.20
2022-07-29T21:10:14.319Z,25.50
2022-07-29T21:12:43.211Z,25.30
2022-07-29T21:15:15.937Z,25.30
2022-07-29T21:17:47.970Z,25.70
2022-07-29T21:20:17.847Z,25.60
2022-07-29T21:22:46.834Z,25.80
2022-07-29T21:25:15.146Z,26.40
2022-07-29T21:28:01.126Z,26.20
2022-07-29T21:30:30.879Z,26.40
2022-07-29T21:32:59.705Z,26.80
2022-07-29T21:36:02.164Z,27.10
2022-07-29T21:38:18.365Z,27.30
2022-07-29T21:40:47.762Z,28.60
2022-07-29T21:43:16.642Z,28.90
2022-07-29T21:45:47.671Z,28.30
2022-07-29T21:48:15.806Z,27.50
2022-07-29T21:50:44.678Z,28.40
2022-07-29T21:53:15.003Z,28.60
2022-07-29T21:55:44.430Z,28.40
2022-07-29T21:58:15.327Z,28.50
2022-07-29T22:00:46.109Z,28.60
2022-07-29T22:03:14.473Z,28.80
2022-07-29T22:05:42.645Z,28.90
2022-07-29T22:08:10.876Z,28.70
2022-07-29T22:10:39.225Z,28.70
2022-07-29T22:13:07.444Z,28.30
2022-07-29T22:15:35.840Z,29.20
2022-07-29T22:18:06.003Z,28.80
2022-07-29T22:20:34.402Z,28.60
2022-07-29T22:23:03.115Z,28.40
2022-07-29T22:25:31.287Z,28.90
2022-07-29T22:27:59.619Z,28.60
2022-07-29T22:30:28.059Z,28.90
2022-07-29T22:32:56.257Z,29.20
2022-07-29T22:35:26.177Z,29.00
2022-07-29T22:37:54.431Z,29.30
2022-07-29T22:40:22.784Z,29.10
2022-07-29T22:42:59.289Z,28.90
2022-07-29T22:45:27.465Z,29.40
2022-07-29T22:47:59.455Z,29.80
2022-07-29T22:50:29.137Z,31.10
2022-07-29T22:52:57.477Z,30.90
2022-07-29T22:55:25.802Z,31.20
2022-07-29T22:57:54.339Z,31.40
2022-07-29T23:00:22.571Z,31.60
2022-07-29T23:02:51.241Z,31.80
2022-07-29T23:05:19.762Z,32.10
2022-07-29T23:07:49.371Z,32.50
2022-07-29T23:10:17.682Z,32.20
2022-07-29T23:12:45.940Z,32.80
2022-07-29T23:15:14.483Z,32.80
2022-07-29T23:17:42.655Z,32.90
2022-07-29T23:20:11.445Z,33.40
2022-07-29T23:22:43.490Z,33.40
2022-07-29T23:25:13.197Z,33.10
2022-07-29T23:27:41.925Z,33.60
2022-07-29T23:30:11.654Z,33.20
2022-07-29T23:32:40.072Z,33.50
2022-07-29T23:35:09.896Z,33.50
2022-07-29T23:37:39.804Z,34.40
2022-07-29T23:40:13.786Z,34.40
2022-07-29T23:42:44.425Z,34.50
2022-07-29T23:45:14.110Z,35.00
2022-07-29T23:47:42.910Z,34.90
2022-07-29T23:50:13.234Z,35.10
2022-07-29T23:52:41.946Z,35.50
2022-07-29T23:55:36.430Z,35.50
2022-07-29T23:58:00.644Z,35.60
